Sciota, Pennsylvania
Current Conditions -  °F | °C
As of 3:53 AM on Thursday 23 Oct 2014 (Local Time) from KMPO Reporting Station
Light Rain Light Rain  
Wind Chill: 37°   Ceiling: 1200
Heat Index: 45°   Visibility: 10mi
Dew Point: 41°   Wind: 21mph
Humidity: 86%   Direction: 330°NNW
Pressure: 29.79"   Gusts: 32mph
Location:  40.93°N, 75.32°W
Report Text: KMPO 230753Z AUTO 33018G28KT 10SM -RA OVC012 07/05 A2979 RMK AO2 PK WND 32028/0752 RAB28 SLP094 T00720050 TSNO PNO $
Loading
Personal Weather Stations






























Interactive Weather Map
Tropical Storm Tracking
New forecast layout! Learn more

10-Day Weather Forecast

Advertisements
Track Severe Weather on mobile